createdAt,value
2019-02-21T00:13:43.737Z,2.47
2019-02-21T00:16:13.795Z,2.67
2019-02-21T00:24:07.076Z,3.83
2019-02-21T00:26:36.810Z,2.50
2019-02-21T00:29:06.407Z,2.77
2019-02-21T00:31:36.169Z,2.50
2019-02-21T00:34:06.406Z,2.10
2019-02-21T00:36:35.970Z,2.30
2019-02-21T00:39:07.161Z,2.33
2019-02-21T00:41:37.109Z,2.30
2019-02-21T00:44:06.956Z,3.60
2019-02-21T00:46:36.626Z,3.20
2019-02-21T00:49:06.588Z,2.47
2019-02-21T00:51:36.729Z,3.20
2019-02-21T00:54:06.563Z,2.83
2019-02-21T00:56:36.517Z,3.47
2019-02-21T00:59:06.221Z,2.90
2019-02-21T01:01:36.312Z,3.07
2019-02-21T01:04:06.314Z,3.77
2019-02-21T01:06:36.062Z,3.93
2019-02-21T01:09:06.773Z,5.37
2019-02-21T01:11:36.534Z,4.20
2019-02-21T01:14:06.558Z,4.20
2019-02-21T01:16:36.138Z,5.53
2019-02-21T01:19:06.388Z,4.17
2019-02-21T01:21:36.112Z,4.63
2019-02-21T01:24:05.958Z,3.97
2019-02-21T01:26:35.710Z,3.87
2019-02-21T01:29:05.323Z,4.00
2019-02-21T01:31:35.256Z,5.60
2019-02-21T01:34:05.033Z,4.20
2019-02-21T01:36:35.852Z,4.80
2019-02-21T01:39:07.092Z,4.70
2019-02-21T01:41:37.223Z,3.30
2019-02-21T01:44:07.003Z,3.10
2019-02-21T01:46:36.701Z,4.07
2019-02-21T01:49:06.485Z,3.83
2019-02-21T01:51:36.282Z,4.50
2019-02-21T01:54:06.268Z,4.60
2019-02-21T01:56:35.851Z,3.90
2019-02-21T01:59:05.475Z,4.13
2019-02-21T02:01:35.235Z,3.77
2019-02-21T02:04:04.863Z,4.77
2019-02-21T02:06:36.388Z,4.90
2019-02-21T02:09:11.478Z,4.03
2019-02-21T02:11:41.202Z,4.07
2019-02-21T02:14:10.905Z,5.27
2019-02-21T02:16:40.491Z,5.23
2019-02-21T02:19:10.675Z,5.00
2019-02-21T02:21:40.926Z,5.27
2019-02-21T02:24:10.531Z,5.03
2019-02-21T02:26:40.271Z,5.27
2019-02-21T02:29:10.053Z,4.53
2019-02-21T02:31:39.812Z,6.27
2019-02-21T02:34:09.416Z,4.23
2019-02-21T02:36:39.379Z,3.97
2019-02-21T02:39:09.118Z,5.07
2019-02-21T02:41:38.894Z,5.43
2019-02-21T02:44:08.711Z,5.73
2019-02-21T02:46:38.499Z,5.83
2019-02-21T02:49:08.587Z,4.93
2019-02-21T02:51:38.484Z,5.20
2019-02-21T02:54:08.167Z,5.70
2019-02-21T02:56:38.005Z,5.30
2019-02-21T02:59:07.824Z,6.97
2019-02-21T03:01:37.702Z,7.30
2019-02-21T03:04:07.421Z,5.77
2019-02-21T03:06:37.317Z,6.43
2019-02-21T03:09:10.235Z,8.00
2019-02-21T03:11:40.145Z,5.23
2019-02-21T03:14:09.900Z,5.47
2019-02-21T03:16:39.607Z,6.70
2019-02-21T03:19:09.443Z,6.10
2019-02-21T03:21:39.234Z,6.57
2019-02-21T03:24:09.114Z,5.30
2019-02-21T03:26:39.110Z,6.47
2019-02-21T03:29:08.819Z,5.97
2019-02-21T03:31:53.541Z,4.50
2019-02-21T03:34:10.258Z,5.73
2019-02-21T03:36:40.225Z,5.87
2019-02-21T03:39:10.282Z,5.20
2019-02-21T03:41:40.479Z,5.00
2019-02-21T03:44:10.478Z,5.00
2019-02-21T03:46:40.213Z,4.37
2019-02-21T03:49:10.010Z,6.53
2019-02-21T03:51:39.689Z,4.67
2019-02-21T03:54:09.755Z,4.27
2019-02-21T03:56:39.463Z,4.57
2019-02-21T03:59:09.155Z,4.50
2019-02-21T04:01:38.752Z,4.90
2019-02-21T04:04:08.367Z,4.00
2019-02-21T04:06:38.403Z,4.17
2019-02-21T04:09:09.709Z,4.60
2019-02-21T04:11:39.505Z,3.80
2019-02-21T04:14:09.471Z,3.90
2019-02-21T04:16:39.332Z,4.37
2019-02-21T04:19:09.424Z,4.73
2019-02-21T04:21:39.309Z,4.30
2019-02-21T04:24:09.579Z,3.30
2019-02-21T04:26:39.494Z,4.00
2019-02-21T04:29:09.082Z,3.67
2019-02-21T04:31:38.817Z,4.67
2019-02-21T04:34:08.635Z,5.03
2019-02-21T04:36:38.425Z,4.40
2019-02-21T04:39:08.352Z,3.80
2019-02-21T04:41:38.335Z,4.23
2019-02-21T04:44:08.336Z,4.50
2019-02-21T04:46:39.103Z,4.77
2019-02-21T04:49:09.069Z,4.07
2019-02-21T04:51:38.721Z,4.57
2019-02-21T04:54:08.565Z,3.30
2019-02-21T04:56:38.642Z,4.23
2019-02-21T04:59:08.357Z,3.87
2019-02-21T05:01:40.268Z,3.30
2019-02-21T05:04:09.625Z,4.03
2019-02-21T05:06:39.282Z,3.50
2019-02-21T05:11:44.402Z,4.70
2019-02-21T05:14:14.188Z,5.73
2019-02-21T05:39:14.365Z,5.17
2019-02-21T05:45:18.461Z,5.97
2019-02-21T05:57:23.567Z,5.87
2019-02-21T06:03:18.258Z,4.63
2019-02-21T06:09:42.955Z,4.43
2019-02-21T06:15:32.183Z,4.37
2019-02-21T06:24:17.740Z,5.80
2019-02-21T06:26:55.876Z,4.60
2019-02-21T06:32:30.927Z,4.67
2019-02-21T06:35:02.891Z,3.70
2019-02-21T06:37:32.533Z,4.30
2019-02-21T06:40:02.372Z,4.20
2019-02-21T06:42:32.067Z,4.53
2019-02-21T06:45:02.050Z,5.10
2019-02-21T06:47:31.575Z,4.90
2019-02-21T06:50:01.379Z,4.80
2019-02-21T06:52:31.211Z,5.23
2019-02-21T06:55:02.354Z,6.40
2019-02-21T06:57:33.106Z,4.87
2019-02-21T07:00:02.996Z,5.07
2019-02-21T07:02:32.799Z,5.90
2019-02-21T07:05:02.903Z,6.43
2019-02-21T07:07:32.832Z,5.03
2019-02-21T07:10:02.447Z,8.87
2019-02-21T07:12:32.075Z,6.63
2019-02-21T07:15:02.251Z,7.03
2019-02-21T07:17:32.358Z,12.10
2019-02-21T07:22:54.198Z,8.67
2019-02-21T07:31:32.915Z,9.63
2019-02-21T07:34:02.563Z,36.97
2019-02-21T07:39:16.819Z,11.13
2019-02-21T07:41:41.677Z,13.37
2019-02-21T07:44:12.354Z,12.03
2019-02-21T07:49:31.521Z,14.07
2019-02-21T07:52:01.217Z,12.27
2019-02-21T07:54:31.055Z,12.40
2019-02-21T07:57:01.950Z,13.03
2019-02-21T08:09:13.872Z,14.57
2019-02-21T08:11:43.861Z,18.03
2019-02-21T08:14:32.556Z,14.57
2019-02-21T08:17:02.461Z,14.60
2019-02-21T08:19:32.494Z,14.83
2019-02-21T08:22:02.605Z,16.77
2019-02-21T08:24:32.463Z,16.57
2019-02-21T08:27:02.136Z,16.20
2019-02-21T08:29:31.921Z,17.70
2019-02-21T08:32:01.579Z,15.00
2019-02-21T08:34:35.572Z,13.43
2019-02-21T08:37:05.167Z,13.80
2019-02-21T08:45:50.214Z,12.00
2019-02-21T08:48:19.993Z,13.90
2019-02-21T08:50:49.649Z,13.57
2019-02-21T08:53:19.409Z,12.60
2019-02-21T08:55:49.102Z,15.00
2019-02-21T08:58:18.814Z,39.00
2019-02-21T09:00:48.532Z,18.87
2019-02-21T09:03:18.344Z,18.33
2019-02-21T09:08:41.968Z,19.13
2019-02-21T09:11:11.928Z,16.67
2019-02-21T09:13:41.930Z,19.70
2019-02-21T09:16:11.532Z,15.67
2019-02-21T09:18:41.240Z,17.27
2019-02-21T09:21:11.515Z,23.80
2019-02-21T09:23:41.377Z,26.33
2019-02-21T09:26:11.127Z,24.47
2019-02-21T09:35:23.640Z,26.17
2019-02-21T09:37:53.571Z,26.17
2019-02-21T09:40:23.239Z,23.20
2019-02-21T09:42:52.945Z,23.50
2019-02-21T09:48:12.179Z,23.93
2019-02-21T09:50:41.942Z,23.50
2019-02-21T09:55:50.186Z,27.10
2019-02-21T09:58:19.115Z,28.83
2019-02-21T10:00:48.920Z,34.57
2019-02-21T10:03:18.485Z,25.77
2019-02-21T10:06:08.453Z,28.50
2019-02-21T10:08:39.410Z,30.97
2019-02-21T10:11:11.372Z,31.27
2019-02-21T10:13:40.940Z,26.57
2019-02-21T10:16:11.395Z,26.90
2019-02-21T10:18:41.099Z,37.77
2019-02-21T10:21:10.790Z,37.13
2019-02-21T10:23:42.164Z,30.70
2019-02-21T10:29:40.301Z,19.60
2019-02-21T10:32:09.997Z,18.60
2019-02-21T10:34:42.953Z,17.43
2019-02-21T10:37:10.941Z,16.43
2019-02-21T10:39:40.678Z,15.70
2019-02-21T10:42:10.251Z,14.53
2019-02-21T10:44:39.887Z,14.37
2019-02-21T10:47:09.737Z,13.33
2019-02-21T10:52:50.648Z,14.00
2019-02-21T10:55:20.431Z,12.33
2019-02-21T11:00:32.620Z,15.60
2019-02-21T11:03:02.369Z,15.37
2019-02-21T11:05:32.633Z,12.87
2019-02-21T11:08:02.721Z,18.37
2019-02-21T11:10:33.223Z,15.43
2019-02-21T11:13:03.189Z,13.20
2019-02-21T11:15:51.887Z,12.17
2019-02-21T11:18:21.734Z,17.33
2019-02-21T11:20:51.845Z,14.70
2019-02-21T11:23:21.543Z,16.37
2019-02-21T11:25:51.630Z,11.60
2019-02-21T11:28:21.670Z,15.53
2019-02-21T11:30:51.568Z,23.43
2019-02-21T11:36:31.898Z,9.60
2019-02-21T11:39:01.746Z,10.20
2019-02-21T11:41:32.078Z,5.00
2019-02-21T11:44:01.604Z,4.17
2019-02-21T11:46:31.601Z,4.80
2019-02-21T11:51:51.890Z,6.07
2019-02-21T11:54:27.032Z,3.00
2019-02-21T11:56:54.014Z,3.90
2019-02-21T11:59:23.682Z,2.77
2019-02-21T12:01:53.390Z,2.93
2019-02-21T12:04:24.439Z,5.07
2019-02-21T12:06:54.652Z,4.63
2019-02-21T12:09:24.294Z,3.97
2019-02-21T12:11:54.255Z,2.37
2019-02-21T12:14:24.004Z,2.17
2019-02-21T12:16:54.013Z,4.07
2019-02-21T12:19:23.842Z,3.20
2019-02-21T12:22:48.885Z,4.67
2019-02-21T12:25:19.136Z,3.47
2019-02-21T12:27:49.465Z,4.43
2019-02-21T12:36:52.009Z,5.27
2019-02-21T12:39:21.908Z,3.17
2019-02-21T12:41:51.666Z,3.40
2019-02-21T12:44:21.273Z,3.30
2019-02-21T12:46:51.111Z,3.27
2019-02-21T12:49:21.057Z,2.17
2019-02-21T12:51:50.628Z,1.90
2019-02-21T12:54:20.332Z,7.87
2019-02-21T12:56:50.176Z,17.57
2019-02-21T13:05:06.899Z,2.90
2019-02-21T13:07:36.545Z,2.83
2019-02-21T13:10:08.186Z,3.90
2019-02-21T13:12:37.901Z,1.90
2019-02-21T13:15:09.155Z,3.03
2019-02-21T13:17:39.244Z,3.93
2019-02-21T13:20:09.884Z,3.33
2019-02-21T13:22:39.684Z,3.50
2019-02-21T13:25:10.368Z,4.07
2019-02-21T13:27:40.093Z,5.03
2019-02-21T13:30:12.977Z,2.93
2019-02-21T13:32:42.642Z,22.90
2019-02-21T13:42:30.164Z,4.83
2019-02-21T13:45:00.032Z,7.87
2019-02-21T13:47:32.776Z,7.47
2019-02-21T13:53:13.116Z,3.50
2019-02-21T13:55:43.008Z,5.53
2019-02-21T13:58:12.590Z,3.67
2019-02-21T14:00:42.404Z,4.13
2019-02-21T14:03:12.390Z,4.93
2019-02-21T14:05:42.224Z,9.10
2019-02-21T14:08:30.913Z,9.27
2019-02-21T14:11:00.628Z,8.77
2019-02-21T14:13:30.395Z,5.30
2019-02-21T14:16:00.095Z,7.63
2019-02-21T14:18:30.353Z,7.03
2019-02-21T14:21:00.323Z,4.70
2019-02-21T14:23:30.134Z,5.47
2019-02-21T14:26:00.147Z,4.07
2019-02-21T14:28:29.961Z,3.23
2019-02-21T14:31:00.189Z,4.37
2019-02-21T14:33:30.261Z,5.90
2019-02-21T14:36:00.183Z,5.40
2019-02-21T14:38:30.186Z,10.50
2019-02-21T14:44:49.464Z,12.80
2019-02-21T14:47:18.806Z,5.13
2019-02-21T14:49:48.867Z,6.17
2019-02-21T14:55:00.767Z,9.70
2019-02-21T14:57:40.554Z,6.03
2019-02-21T15:00:01.867Z,6.30
2019-02-21T15:02:31.564Z,3.53
2019-02-21T15:07:43.124Z,4.67
2019-02-21T15:10:12.798Z,7.27
2019-02-21T15:12:42.521Z,5.37
2019-02-21T15:15:13.510Z,5.47
2019-02-21T15:17:43.127Z,8.60
2019-02-21T15:20:16.548Z,5.77
2019-02-21T15:22:46.493Z,5.53
2019-02-21T15:25:16.342Z,6.60
2019-02-21T15:27:46.114Z,7.43
2019-02-21T15:30:17.866Z,7.90
2019-02-21T15:32:47.854Z,8.00
2019-02-21T15:38:44.603Z,8.13
2019-02-21T15:41:14.245Z,8.30
2019-02-21T15:43:43.899Z,10.83
2019-02-21T15:46:13.751Z,9.13
2019-02-21T15:48:44.688Z,9.53
2019-02-21T16:04:04.170Z,8.13
2019-02-21T16:06:33.995Z,6.20
2019-02-21T16:11:54.481Z,5.50
2019-02-21T16:14:25.888Z,6.70
2019-02-21T16:16:55.613Z,2.80
2019-02-21T16:19:25.345Z,4.13
2019-02-21T16:35:06.893Z,2.90
2019-02-21T16:43:56.477Z,6.57
2019-02-21T16:46:26.246Z,2.40
2019-02-21T16:51:53.767Z,2.20
2019-02-21T16:54:23.517Z,1.20
2019-02-21T16:56:53.658Z,2.37
2019-02-21T16:59:23.463Z,1.30
2019-02-21T17:01:53.199Z,1.20
2019-02-21T17:04:23.129Z,1.50
2019-02-21T17:06:52.913Z,0.60
2019-02-21T17:09:22.838Z,0.93
2019-02-21T17:12:11.954Z,0.77
2019-02-21T17:14:41.774Z,0.70
2019-02-21T17:17:11.472Z,1.60
2019-02-21T17:19:41.439Z,2.33
2019-02-21T17:22:11.156Z,2.50
2019-02-21T17:24:41.128Z,2.30
2019-02-21T17:27:11.200Z,1.17
2019-02-21T17:29:41.314Z,1.17
2019-02-21T17:37:29.544Z,1.10
2019-02-21T17:39:59.557Z,0.50
2019-02-21T17:42:29.458Z,1.27
2019-02-21T17:44:59.298Z,0.90
2019-02-21T17:53:16.764Z,0.73
2019-02-21T17:58:44.773Z,1.00
2019-02-21T18:01:51.053Z,1.23
2019-02-21T18:05:00.745Z,1.10
2019-02-21T18:07:36.320Z,4.70
2019-02-21T18:10:02.776Z,0.43
2019-02-21T18:12:32.656Z,0.60
2019-02-21T18:15:21.579Z,0.90
2019-02-21T18:17:51.950Z,1.13
2019-02-21T18:20:21.639Z,3.20
2019-02-21T18:23:12.410Z,1.73
2019-02-21T18:25:45.745Z,1.20
2019-02-21T18:28:15.565Z,0.93
2019-02-21T18:30:45.553Z,0.60
2019-02-21T18:33:15.603Z,0.60
2019-02-21T18:35:45.533Z,0.80
2019-02-21T18:38:16.043Z,1.67
2019-02-21T18:40:45.900Z,7.47
2019-02-21T18:43:15.644Z,1.40
2019-02-21T18:46:04.418Z,0.50
2019-02-21T18:48:34.124Z,1.07
2019-02-21T18:53:40.422Z,1.20
2019-02-21T18:59:32.145Z,1.93
2019-02-21T19:08:24.626Z,1.70
2019-02-21T19:10:54.607Z,1.20
2019-02-21T19:13:24.607Z,1.07
2019-02-21T19:15:54.470Z,0.60
2019-02-21T19:25:10.587Z,0.47
2019-02-21T19:27:41.264Z,0.80
2019-02-21T19:30:47.627Z,0.90
2019-02-21T19:33:17.451Z,1.33
2019-02-21T19:35:48.629Z,1.03
2019-02-21T19:38:19.640Z,0.40
2019-02-21T19:43:38.818Z,0.60
2019-02-21T19:46:09.035Z,0.43
2019-02-21T19:48:38.817Z,1.93
2019-02-21T19:51:09.048Z,0.47
2019-02-21T19:56:14.034Z,0.67
2019-02-21T19:58:43.862Z,0.77
2019-02-21T20:01:13.799Z,0.90
2019-02-21T20:03:43.544Z,0.30
2019-02-21T20:06:14.215Z,0.30
2019-02-21T20:08:44.324Z,0.33
2019-02-21T20:15:06.657Z,0.20
2019-02-21T20:17:36.913Z,0.57
2019-02-21T20:20:07.028Z,0.30
2019-02-21T20:22:36.852Z,1.33
2019-02-21T20:25:06.762Z,0.50
2019-02-21T20:27:36.760Z,0.50
2019-02-21T20:30:07.560Z,0.60
2019-02-21T20:32:37.422Z,0.60
2019-02-21T20:35:07.575Z,0.40
2019-02-21T20:37:37.477Z,0.47
2019-02-21T20:40:08.055Z,2.10
2019-02-21T20:42:37.962Z,0.40
2019-02-21T20:45:08.652Z,0.70
2019-02-21T20:47:38.463Z,0.50
2019-02-21T20:50:08.887Z,0.80
2019-02-21T20:52:39.054Z,0.50
2019-02-21T20:55:09.468Z,0.50
2019-02-21T20:57:39.743Z,1.33
2019-02-21T21:00:11.307Z,0.90
2019-02-21T21:02:42.337Z,0.70
2019-02-21T21:05:12.593Z,0.83
2019-02-21T21:07:42.485Z,0.80
2019-02-21T21:10:13.835Z,0.40
2019-02-21T21:12:43.850Z,1.13
2019-02-21T21:15:14.986Z,0.30
2019-02-21T21:17:45.023Z,0.80
2019-02-21T21:23:05.072Z,0.63
2019-02-21T21:25:35.034Z,0.80
2019-02-21T21:34:27.451Z,0.50
2019-02-21T21:36:57.391Z,0.30
2019-02-21T21:39:28.312Z,1.00
2019-02-21T21:41:59.041Z,1.77
2019-02-21T21:44:28.653Z,0.87
2019-02-21T21:46:58.705Z,0.70
2019-02-21T21:49:28.581Z,0.47
2019-02-21T21:51:58.484Z,0.53
2019-02-21T22:00:32.116Z,1.20
2019-02-21T22:03:02.282Z,0.77
2019-02-21T22:05:32.226Z,0.80
2019-02-21T22:10:37.084Z,0.80
2019-02-21T22:13:07.418Z,0.90
2019-02-21T22:15:37.683Z,0.67
2019-02-21T22:18:07.499Z,0.30
2019-02-21T22:20:38.054Z,0.60
2019-02-21T22:23:08.087Z,0.93
2019-02-21T22:25:37.890Z,0.80
2019-02-21T22:28:08.136Z,1.00
2019-02-21T22:30:37.775Z,1.23
2019-02-21T22:33:07.843Z,1.10
2019-02-21T22:35:37.669Z,3.10
2019-02-21T22:38:07.534Z,1.40
2019-02-21T22:40:38.033Z,2.93
2019-02-21T22:43:08.716Z,2.17
2019-02-21T22:45:57.401Z,1.00
2019-02-21T22:48:27.352Z,0.47
2019-02-21T22:50:57.906Z,0.40
2019-02-21T22:53:28.186Z,0.57
2019-02-21T22:55:58.198Z,0.50
2019-02-21T22:58:28.302Z,0.30
2019-02-21T23:01:26.140Z,0.60
2019-02-21T23:04:20.107Z,0.70
2019-02-21T23:10:13.147Z,0.30
2019-02-21T23:12:43.347Z,0.53
2019-02-21T23:18:25.007Z,0.73
2019-02-21T23:20:54.664Z,1.27
2019-02-21T23:23:24.317Z,6.50
2019-02-21T23:25:54.226Z,2.67
2019-02-21T23:28:24.271Z,2.07
2019-02-21T23:30:54.317Z,0.90
2019-02-21T23:39:37.803Z,1.10
2019-02-21T23:41:59.706Z,0.90
2019-02-21T23:44:29.987Z,2.33
2019-02-21T23:50:00.670Z,1.93
2019-02-21T23:52:30.777Z,1.70
2019-02-21T23:55:00.806Z,1.03
2019-02-21T23:57:32.322Z,1.90
